sensor_id;sensor_type;location;lat;lon;timestamp;P1;durP1;ratioP1;P2;durP2;ratioP2
76591;SDS011;65481;47.600;19.682;2023-07-13T00:04:42;12.38;;;11.07;;
76591;SDS011;65481;47.600;19.682;2023-07-13T00:09:42;12.70;;;10.80;;
76591;SDS011;65481;47.600;19.682;2023-07-13T00:14:43;13.10;;;11.70;;
76591;SDS011;65481;47.600;19.682;2023-07-13T00:19:43;13.63;;;11.43;;
76591;SDS011;65481;47.600;19.682;2023-07-13T00:24:44;11.10;;;10.00;;
76591;SDS011;65481;47.600;19.682;2023-07-13T00:29:45;15.40;;;12.20;;
76591;SDS011;65481;47.600;19.682;2023-07-13T00:34:45;16.58;;;11.85;;
76591;SDS011;65481;47.600;19.682;2023-07-13T00:39:45;10.95;;;9.07;;
76591;SDS011;65481;47.600;19.682;2023-07-13T00:45:06;12.90;;;9.90;;
76591;SDS011;65481;47.600;19.682;2023-07-13T00:50:13;12.57;;;8.95;;
76591;SDS011;65481;47.600;19.682;2023-07-13T00:55:16;10.90;;;7.65;;
76591;SDS011;65481;47.600;19.682;2023-07-13T01:00:17;14.48;;;8.63;;
76591;SDS011;65481;47.600;19.682;2023-07-13T01:05:22;11.52;;;8.20;;
76591;SDS011;65481;47.600;19.682;2023-07-13T01:10:24;13.02;;;8.15;;
76591;SDS011;65481;47.600;19.682;2023-07-13T01:20:53;12.73;;;7.15;;
76591;SDS011;65481;47.600;19.682;2023-07-13T01:26:01;11.65;;;7.00;;
76591;SDS011;65481;47.600;19.682;2023-07-13T01:31:01;11.02;;;7.03;;
76591;SDS011;65481;47.600;19.682;2023-07-13T01:36:03;10.48;;;6.72;;
76591;SDS011;65481;47.600;19.682;2023-07-13T01:41:03;12.30;;;6.82;;
76591;SDS011;65481;47.600;19.682;2023-07-13T01:46:04;12.05;;;6.70;;
76591;SDS011;65481;47.600;19.682;2023-07-13T01:51:04;10.13;;;6.93;;
76591;SDS011;65481;47.600;19.682;2023-07-13T01:56:05;8.45;;;6.43;;
76591;SDS011;65481;47.600;19.682;2023-07-13T02:01:05;10.57;;;6.50;;
76591;SDS011;65481;47.600;19.682;2023-07-13T02:06:06;9.15;;;6.65;;
76591;SDS011;65481;47.600;19.682;2023-07-13T02:11:06;12.05;;;7.15;;
76591;SDS011;65481;47.600;19.682;2023-07-13T02:16:07;9.20;;;7.35;;
76591;SDS011;65481;47.600;19.682;2023-07-13T02:21:07;10.95;;;7.32;;
76591;SDS011;65481;47.600;19.682;2023-07-13T02:26:08;11.30;;;8.00;;
76591;SDS011;65481;47.600;19.682;2023-07-13T02:31:10;9.48;;;7.10;;
76591;SDS011;65481;47.600;19.682;2023-07-13T02:36:12;9.48;;;7.03;;
76591;SDS011;65481;47.600;19.682;2023-07-13T02:41:17;10.60;;;7.57;;
76591;SDS011;65481;47.600;19.682;2023-07-13T02:46:18;10.20;;;7.25;;
76591;SDS011;65481;47.600;19.682;2023-07-13T02:51:19;8.45;;;7.13;;
76591;SDS011;65481;47.600;19.682;2023-07-13T02:56:23;8.38;;;6.88;;
76591;SDS011;65481;47.600;19.682;2023-07-13T03:01:26;9.95;;;7.10;;
76591;SDS011;65481;47.600;19.682;2023-07-13T03:06:26;9.38;;;6.97;;
76591;SDS011;65481;47.600;19.682;2023-07-13T03:11:30;13.00;;;8.07;;
76591;SDS011;65481;47.600;19.682;2023-07-13T03:16:31;10.35;;;8.32;;
76591;SDS011;65481;47.600;19.682;2023-07-13T03:21:31;11.85;;;7.80;;
76591;SDS011;65481;47.600;19.682;2023-07-13T03:26:32;10.10;;;7.88;;
76591;SDS011;65481;47.600;19.682;2023-07-13T03:31:33;14.02;;;8.48;;
76591;SDS011;65481;47.600;19.682;2023-07-13T03:36:35;11.15;;;7.38;;
76591;SDS011;65481;47.600;19.682;2023-07-13T03:41:35;12.55;;;7.55;;
76591;SDS011;65481;47.600;19.682;2023-07-13T03:46:36;12.05;;;7.55;;
76591;SDS011;65481;47.600;19.682;2023-07-13T03:51:37;10.13;;;7.68;;
76591;SDS011;65481;47.600;19.682;2023-07-13T03:56:37;12.88;;;8.30;;
76591;SDS011;65481;47.600;19.682;2023-07-13T04:01:38;10.23;;;6.78;;
76591;SDS011;65481;47.600;19.682;2023-07-13T04:06:39;10.52;;;7.10;;
76591;SDS011;65481;47.600;19.682;2023-07-13T04:11:39;12.48;;;7.05;;
76591;SDS011;65481;47.600;19.682;2023-07-13T04:16:40;11.80;;;7.00;;
76591;SDS011;65481;47.600;19.682;2023-07-13T04:21:40;8.75;;;6.60;;
76591;SDS011;65481;47.600;19.682;2023-07-13T04:26:41;10.85;;;6.07;;
76591;SDS011;65481;47.600;19.682;2023-07-13T04:31:41;9.35;;;6.00;;
76591;SDS011;65481;47.600;19.682;2023-07-13T04:36:42;12.52;;;7.32;;
76591;SDS011;65481;47.600;19.682;2023-07-13T04:41:42;12.35;;;8.38;;
76591;SDS011;65481;47.600;19.682;2023-07-13T04:46:43;14.63;;;7.90;;
76591;SDS011;65481;47.600;19.682;2023-07-13T04:51:45;10.68;;;8.10;;
76591;SDS011;65481;47.600;19.682;2023-07-13T04:56:45;13.35;;;7.95;;
76591;SDS011;65481;47.600;19.682;2023-07-13T05:01:46;13.88;;;8.30;;
76591;SDS011;65481;47.600;19.682;2023-07-13T05:06:46;10.73;;;7.88;;
76591;SDS011;65481;47.600;19.682;2023-07-13T05:11:47;14.75;;;7.18;;
76591;SDS011;65481;47.600;19.682;2023-07-13T05:16:47;9.93;;;7.60;;
76591;SDS011;65481;47.600;19.682;2023-07-13T05:21:48;9.68;;;7.55;;
76591;SDS011;65481;47.600;19.682;2023-07-13T05:26:48;13.20;;;7.53;;
76591;SDS011;65481;47.600;19.682;2023-07-13T05:31:49;13.50;;;7.43;;
76591;SDS011;65481;47.600;19.682;2023-07-13T05:36:50;13.20;;;7.65;;
76591;SDS011;65481;47.600;19.682;2023-07-13T05:41:51;12.50;;;7.60;;
76591;SDS011;65481;47.600;19.682;2023-07-13T05:46:51;10.90;;;7.97;;
76591;SDS011;65481;47.600;19.682;2023-07-13T05:51:52;10.02;;;7.30;;
76591;SDS011;65481;47.600;19.682;2023-07-13T05:56:53;7.55;;;6.32;;
76591;SDS011;65481;47.600;19.682;2023-07-13T06:01:53;9.38;;;6.10;;
76591;SDS011;65481;47.600;19.682;2023-07-13T06:06:53;9.77;;;5.22;;
76591;SDS011;65481;47.600;19.682;2023-07-13T06:11:54;7.82;;;5.55;;
76591;SDS011;65481;47.600;19.682;2023-07-13T06:16:54;7.07;;;4.70;;
76591;SDS011;65481;47.600;19.682;2023-07-13T06:21:55;7.97;;;4.28;;
76591;SDS011;65481;47.600;19.682;2023-07-13T06:26:55;8.20;;;4.05;;
76591;SDS011;65481;47.600;19.682;2023-07-13T06:31:56;7.47;;;4.55;;
76591;SDS011;65481;47.600;19.682;2023-07-13T06:36:57;26.10;;;15.88;;
76591;SDS011;65481;47.600;19.682;2023-07-13T06:41:58;6.82;;;4.35;;
76591;SDS011;65481;47.600;19.682;2023-07-13T06:46:58;3.90;;;3.40;;
76591;SDS011;65481;47.600;19.682;2023-07-13T06:51:58;4.85;;;3.05;;
76591;SDS011;65481;47.600;19.682;2023-07-13T06:56:59;6.30;;;3.38;;
76591;SDS011;65481;47.600;19.682;2023-07-13T07:01:59;5.10;;;3.47;;
76591;SDS011;65481;47.600;19.682;2023-07-13T07:07:00;4.55;;;3.08;;
76591;SDS011;65481;47.600;19.682;2023-07-13T07:12:00;5.43;;;3.35;;
76591;SDS011;65481;47.600;19.682;2023-07-13T07:17:02;4.50;;;3.00;;
76591;SDS011;65481;47.600;19.682;2023-07-13T07:22:02;3.80;;;3.03;;
76591;SDS011;65481;47.600;19.682;2023-07-13T07:27:03;4.00;;;3.05;;
76591;SDS011;65481;47.600;19.682;2023-07-13T07:32:04;5.55;;;3.22;;
76591;SDS011;65481;47.600;19.682;2023-07-13T07:37:05;5.68;;;3.35;;
76591;SDS011;65481;47.600;19.682;2023-07-13T07:42:06;4.50;;;3.03;;
76591;SDS011;65481;47.600;19.682;2023-07-13T07:47:07;5.07;;;3.60;;
76591;SDS011;65481;47.600;19.682;2023-07-13T07:52:08;3.30;;;2.55;;
76591;SDS011;65481;47.600;19.682;2023-07-13T07:57:08;4.32;;;2.90;;
76591;SDS011;65481;47.600;19.682;2023-07-13T08:02:10;5.65;;;2.78;;
76591;SDS011;65481;47.600;19.682;2023-07-13T08:07:10;4.00;;;3.53;;
76591;SDS011;65481;47.600;19.682;2023-07-13T08:12:11;4.78;;;2.90;;
76591;SDS011;65481;47.600;19.682;2023-07-13T08:17:11;6.10;;;2.95;;
76591;SDS011;65481;47.600;19.682;2023-07-13T08:22:12;3.95;;;2.47;;
76591;SDS011;65481;47.600;19.682;2023-07-13T08:27:12;2.87;;;2.30;;
76591;SDS011;65481;47.600;19.682;2023-07-13T08:32:13;2.88;;;2.20;;
76591;SDS011;65481;47.600;19.682;2023-07-13T08:37:14;3.75;;;2.38;;
76591;SDS011;65481;47.600;19.682;2023-07-13T08:47:46;2.88;;;2.50;;
76591;SDS011;65481;47.600;19.682;2023-07-13T08:52:53;6.40;;;2.40;;
76591;SDS011;65481;47.600;19.682;2023-07-13T08:58:00;3.55;;;2.30;;
76591;SDS011;65481;47.600;19.682;2023-07-13T09:03:10;4.38;;;2.47;;
76591;SDS011;65481;47.600;19.682;2023-07-13T09:19:25;3.55;;;2.40;;
76591;SDS011;65481;47.600;19.682;2023-07-13T09:29:37;3.00;;;2.45;;
76591;SDS011;65481;47.600;19.682;2023-07-13T09:34:50;2.50;;;2.17;;
76591;SDS011;65481;47.600;19.682;2023-07-13T09:39:51;3.20;;;2.53;;
76591;SDS011;65481;47.600;19.682;2023-07-13T09:44:55;3.28;;;2.90;;
76591;SDS011;65481;47.600;19.682;2023-07-13T09:50:01;3.03;;;2.30;;
76591;SDS011;65481;47.600;19.682;2023-07-13T09:55:11;5.85;;;2.55;;
76591;SDS011;65481;47.600;19.682;2023-07-13T10:00:26;3.13;;;2.20;;
76591;SDS011;65481;47.600;19.682;2023-07-13T10:05:28;3.45;;;2.63;;
76591;SDS011;65481;47.600;19.682;2023-07-13T10:10:36;3.40;;;2.65;;
76591;SDS011;65481;47.600;19.682;2023-07-13T10:15:37;4.20;;;3.00;;
76591;SDS011;65481;47.600;19.682;2023-07-13T10:20:37;3.28;;;2.58;;
76591;SDS011;65481;47.600;19.682;2023-07-13T10:25:39;2.97;;;2.70;;
76591;SDS011;65481;47.600;19.682;2023-07-13T10:30:43;5.63;;;3.45;;
76591;SDS011;65481;47.600;19.682;2023-07-13T10:35:47;3.70;;;3.00;;
76591;SDS011;65481;47.600;19.682;2023-07-13T10:41:02;4.50;;;3.08;;
76591;SDS011;65481;47.600;19.682;2023-07-13T10:46:05;2.97;;;2.63;;
76591;SDS011;65481;47.600;19.682;2023-07-13T10:51:09;3.75;;;3.00;;
76591;SDS011;65481;47.600;19.682;2023-07-13T10:56:28;4.88;;;2.42;;
76591;SDS011;65481;47.600;19.682;2023-07-13T11:01:39;7.07;;;2.97;;
76591;SDS011;65481;47.600;19.682;2023-07-13T11:06:47;3.58;;;2.90;;
76591;SDS011;65481;47.600;19.682;2023-07-13T11:11:50;4.65;;;2.67;;
76591;SDS011;65481;47.600;19.682;2023-07-13T11:16:50;3.90;;;2.67;;
76591;SDS011;65481;47.600;19.682;2023-07-13T11:27:33;4.70;;;2.70;;
76591;SDS011;65481;47.600;19.682;2023-07-13T11:32:38;5.18;;;2.95;;
76591;SDS011;65481;47.600;19.682;2023-07-13T11:37:39;3.38;;;3.00;;
76591;SDS011;65481;47.600;19.682;2023-07-13T11:42:40;3.03;;;2.60;;
76591;SDS011;65481;47.600;19.682;2023-07-13T11:47:40;4.07;;;2.70;;
76591;SDS011;65481;47.600;19.682;2023-07-13T11:52:42;3.60;;;3.00;;
76591;SDS011;65481;47.600;19.682;2023-07-13T11:57:49;5.22;;;2.60;;
76591;SDS011;65481;47.600;19.682;2023-07-13T12:03:01;4.97;;;2.83;;
76591;SDS011;65481;47.600;19.682;2023-07-13T12:08:11;3.47;;;2.80;;
76591;SDS011;65481;47.600;19.682;2023-07-13T12:13:11;3.45;;;2.85;;
76591;SDS011;65481;47.600;19.682;2023-07-13T12:18:13;4.55;;;2.92;;
76591;SDS011;65481;47.600;19.682;2023-07-13T12:23:29;3.17;;;2.72;;
76591;SDS011;65481;47.600;19.682;2023-07-13T12:28:35;2.97;;;2.50;;
76591;SDS011;65481;47.600;19.682;2023-07-13T12:33:39;3.28;;;2.67;;
76591;SDS011;65481;47.600;19.682;2023-07-13T12:38:41;3.08;;;2.78;;
76591;SDS011;65481;47.600;19.682;2023-07-13T12:43:46;3.65;;;2.50;;
76591;SDS011;65481;47.600;19.682;2023-07-13T12:48:51;3.08;;;2.38;;
76591;SDS011;65481;47.600;19.682;2023-07-13T12:53:57;3.08;;;2.20;;
76591;SDS011;65481;47.600;19.682;2023-07-13T12:59:05;2.15;;;1.95;;
76591;SDS011;65481;47.600;19.682;2023-07-13T13:04:08;5.40;;;2.20;;
76591;SDS011;65481;47.600;19.682;2023-07-13T13:09:12;9.07;;;2.78;;
76591;SDS011;65481;47.600;19.682;2023-07-13T13:14:31;2.72;;;2.25;;
76591;SDS011;65481;47.600;19.682;2023-07-13T13:19:31;2.80;;;2.30;;
76591;SDS011;65481;47.600;19.682;2023-07-13T13:24:32;5.27;;;2.53;;
76591;SDS011;65481;47.600;19.682;2023-07-13T13:29:32;2.30;;;2.10;;
76591;SDS011;65481;47.600;19.682;2023-07-13T13:34:40;3.35;;;2.40;;
76591;SDS011;65481;47.600;19.682;2023-07-13T13:39:40;4.90;;;2.65;;
76591;SDS011;65481;47.600;19.682;2023-07-13T13:44:41;4.47;;;3.00;;
76591;SDS011;65481;47.600;19.682;2023-07-13T13:49:42;3.65;;;3.03;;
76591;SDS011;65481;47.600;19.682;2023-07-13T13:54:42;2.97;;;2.50;;
76591;SDS011;65481;47.600;19.682;2023-07-13T13:59:43;4.13;;;2.72;;
76591;SDS011;65481;47.600;19.682;2023-07-13T14:04:43;6.47;;;2.97;;
76591;SDS011;65481;47.600;19.682;2023-07-13T14:09:45;4.60;;;3.05;;
76591;SDS011;65481;47.600;19.682;2023-07-13T14:14:45;3.92;;;2.90;;
76591;SDS011;65481;47.600;19.682;2023-07-13T14:19:46;3.80;;;2.83;;
76591;SDS011;65481;47.600;19.682;2023-07-13T14:24:46;5.85;;;3.05;;
76591;SDS011;65481;47.600;19.682;2023-07-13T14:29:47;3.35;;;2.80;;
76591;SDS011;65481;47.600;19.682;2023-07-13T14:34:48;7.85;;;3.70;;
76591;SDS011;65481;47.600;19.682;2023-07-13T14:39:48;5.40;;;3.10;;
76591;SDS011;65481;47.600;19.682;2023-07-13T14:44:52;6.90;;;3.53;;
76591;SDS011;65481;47.600;19.682;2023-07-13T14:49:52;4.97;;;2.95;;
76591;SDS011;65481;47.600;19.682;2023-07-13T14:54:53;3.60;;;3.00;;
76591;SDS011;65481;47.600;19.682;2023-07-13T14:59:54;4.57;;;3.10;;
76591;SDS011;65481;47.600;19.682;2023-07-13T15:04:54;5.57;;;3.65;;
76591;SDS011;65481;47.600;19.682;2023-07-13T15:09:55;6.82;;;3.47;;
76591;SDS011;65481;47.600;19.682;2023-07-13T15:14:56;4.75;;;2.92;;
76591;SDS011;65481;47.600;19.682;2023-07-13T15:19:56;4.25;;;2.97;;
76591;SDS011;65481;47.600;19.682;2023-07-13T15:24:57;3.80;;;3.25;;
76591;SDS011;65481;47.600;19.682;2023-07-13T15:29:58;3.20;;;2.90;;
76591;SDS011;65481;47.600;19.682;2023-07-13T15:34:58;3.90;;;3.40;;
76591;SDS011;65481;47.600;19.682;2023-07-13T15:39:59;3.65;;;2.97;;
76591;SDS011;65481;47.600;19.682;2023-07-13T15:44:59;3.95;;;2.80;;
76591;SDS011;65481;47.600;19.682;2023-07-13T15:50:02;3.55;;;2.67;;
76591;SDS011;65481;47.600;19.682;2023-07-13T15:55:03;3.65;;;2.97;;
76591;SDS011;65481;47.600;19.682;2023-07-13T16:00:05;3.38;;;3.00;;
76591;SDS011;65481;47.600;19.682;2023-07-13T16:05:23;3.50;;;3.13;;
76591;SDS011;65481;47.600;19.682;2023-07-13T16:10:37;6.47;;;3.38;;
76591;SDS011;65481;47.600;19.682;2023-07-13T16:15:40;4.60;;;3.10;;
76591;SDS011;65481;47.600;19.682;2023-07-13T16:20:45;3.65;;;3.05;;
76591;SDS011;65481;47.600;19.682;2023-07-13T16:25:46;4.15;;;2.97;;
76591;SDS011;65481;47.600;19.682;2023-07-13T16:30:48;6.50;;;3.38;;
76591;SDS011;65481;47.600;19.682;2023-07-13T16:35:48;4.18;;;3.22;;
76591;SDS011;65481;47.600;19.682;2023-07-13T16:40:49;6.28;;;3.42;;
76591;SDS011;65481;47.600;19.682;2023-07-13T16:45:50;6.57;;;3.30;;
76591;SDS011;65481;47.600;19.682;2023-07-13T16:50:55;5.68;;;3.13;;
76591;SDS011;65481;47.600;19.682;2023-07-13T16:55:57;10.75;;;3.15;;
76591;SDS011;65481;47.600;19.682;2023-07-13T17:01:00;5.05;;;3.00;;
76591;SDS011;65481;47.600;19.682;2023-07-13T17:06:38;3.88;;;3.42;;
76591;SDS011;65481;47.600;19.682;2023-07-13T17:11:32;3.78;;;3.08;;
76591;SDS011;65481;47.600;19.682;2023-07-13T17:16:33;3.33;;;2.97;;
76591;SDS011;65481;47.600;19.682;2023-07-13T17:21:35;3.80;;;3.20;;
76591;SDS011;65481;47.600;19.682;2023-07-13T17:26:35;3.60;;;2.90;;
76591;SDS011;65481;47.600;19.682;2023-07-13T17:31:36;2.72;;;2.22;;
76591;SDS011;65481;47.600;19.682;2023-07-13T17:36:38;2.85;;;2.40;;
76591;SDS011;65481;47.600;19.682;2023-07-13T17:41:39;2.33;;;2.13;;
76591;SDS011;65481;47.600;19.682;2023-07-13T17:46:43;4.22;;;1.83;;
76591;SDS011;65481;47.600;19.682;2023-07-13T17:51:48;3.97;;;1.90;;
76591;SDS011;65481;47.600;19.682;2023-07-13T17:56:51;1.70;;;1.33;;
76591;SDS011;65481;47.600;19.682;2023-07-13T18:01:52;3.90;;;1.90;;
76591;SDS011;65481;47.600;19.682;2023-07-13T18:06:55;2.10;;;1.90;;
76591;SDS011;65481;47.600;19.682;2023-07-13T18:11:56;2.22;;;1.90;;
76591;SDS011;65481;47.600;19.682;2023-07-13T18:16:58;3.97;;;1.80;;
76591;SDS011;65481;47.600;19.682;2023-07-13T18:22:02;1.92;;;1.60;;
76591;SDS011;65481;47.600;19.682;2023-07-13T18:27:10;7.32;;;1.77;;
76591;SDS011;65481;47.600;19.682;2023-07-13T18:32:16;3.03;;;1.70;;
76591;SDS011;65481;47.600;19.682;2023-07-13T18:37:21;2.50;;;1.80;;
76591;SDS011;65481;47.600;19.682;2023-07-13T18:42:23;3.40;;;1.83;;
76591;SDS011;65481;47.600;19.682;2023-07-13T18:47:25;1.95;;;1.65;;
76591;SDS011;65481;47.600;19.682;2023-07-13T18:52:33;2.20;;;1.60;;
76591;SDS011;65481;47.600;19.682;2023-07-13T18:57:33;2.67;;;1.90;;
76591;SDS011;65481;47.600;19.682;2023-07-13T19:02:35;2.60;;;1.60;;
76591;SDS011;65481;47.600;19.682;2023-07-13T19:07:37;2.10;;;1.60;;
76591;SDS011;65481;47.600;19.682;2023-07-13T19:12:38;3.80;;;2.00;;
76591;SDS011;65481;47.600;19.682;2023-07-13T19:17:39;2.60;;;2.00;;
76591;SDS011;65481;47.600;19.682;2023-07-13T19:22:39;3.88;;;2.25;;
76591;SDS011;65481;47.600;19.682;2023-07-13T19:27:41;3.25;;;2.30;;
76591;SDS011;65481;47.600;19.682;2023-07-13T19:32:43;3.58;;;2.58;;
76591;SDS011;65481;47.600;19.682;2023-07-13T19:37:45;3.15;;;2.63;;
76591;SDS011;65481;47.600;19.682;2023-07-13T19:42:46;2.63;;;2.22;;
76591;SDS011;65481;47.600;19.682;2023-07-13T19:47:48;4.10;;;3.10;;
76591;SDS011;65481;47.600;19.682;2023-07-13T19:52:52;3.35;;;3.00;;
76591;SDS011;65481;47.600;19.682;2023-07-13T19:57:57;3.27;;;2.90;;
76591;SDS011;65481;47.600;19.682;2023-07-13T20:02:57;4.15;;;3.30;;
76591;SDS011;65481;47.600;19.682;2023-07-13T20:07:59;5.78;;;3.50;;
76591;SDS011;65481;47.600;19.682;2023-07-13T20:13:00;5.32;;;3.60;;
76591;SDS011;65481;47.600;19.682;2023-07-13T20:18:02;4.95;;;3.47;;
76591;SDS011;65481;47.600;19.682;2023-07-13T20:23:15;5.18;;;3.83;;
76591;SDS011;65481;47.600;19.682;2023-07-13T20:28:18;4.53;;;3.42;;
76591;SDS011;65481;47.600;19.682;2023-07-13T20:33:22;5.93;;;3.78;;
76591;SDS011;65481;47.600;19.682;2023-07-13T20:38:25;4.30;;;3.90;;
76591;SDS011;65481;47.600;19.682;2023-07-13T20:43:27;5.57;;;4.05;;
76591;SDS011;65481;47.600;19.682;2023-07-13T20:53:34;3.75;;;3.25;;
76591;SDS011;65481;47.600;19.682;2023-07-13T20:58:35;5.40;;;3.10;;
76591;SDS011;65481;47.600;19.682;2023-07-13T21:03:36;4.65;;;3.72;;
76591;SDS011;65481;47.600;19.682;2023-07-13T21:08:36;5.35;;;3.92;;
76591;SDS011;65481;47.600;19.682;2023-07-13T21:13:37;7.20;;;4.10;;
76591;SDS011;65481;47.600;19.682;2023-07-13T21:18:37;5.90;;;3.90;;
76591;SDS011;65481;47.600;19.682;2023-07-13T21:23:39;4.85;;;3.50;;
76591;SDS011;65481;47.600;19.682;2023-07-13T21:28:40;5.72;;;3.83;;
76591;SDS011;65481;47.600;19.682;2023-07-13T21:33:42;7.07;;;3.67;;
76591;SDS011;65481;47.600;19.682;2023-07-13T21:38:43;4.15;;;3.03;;
76591;SDS011;65481;47.600;19.682;2023-07-13T21:43:44;5.53;;;3.10;;
76591;SDS011;65481;47.600;19.682;2023-07-13T21:48:45;6.00;;;3.33;;
76591;SDS011;65481;47.600;19.682;2023-07-13T21:53:46;3.72;;;3.20;;
76591;SDS011;65481;47.600;19.682;2023-07-13T21:58:47;5.32;;;3.17;;
76591;SDS011;65481;47.600;19.682;2023-07-13T22:03:55;3.17;;;2.67;;
76591;SDS011;65481;47.600;19.682;2023-07-13T22:08:58;5.05;;;2.58;;
76591;SDS011;65481;47.600;19.682;2023-07-13T22:13:59;3.67;;;2.20;;
76591;SDS011;65481;47.600;19.682;2023-07-13T22:19:00;2.50;;;2.25;;
76591;SDS011;65481;47.600;19.682;2023-07-13T22:24:16;4.72;;;2.70;;
76591;SDS011;65481;47.600;19.682;2023-07-13T22:29:21;3.67;;;2.70;;
76591;SDS011;65481;47.600;19.682;2023-07-13T22:34:26;3.20;;;2.42;;
76591;SDS011;65481;47.600;19.682;2023-07-13T22:39:27;4.30;;;2.67;;
76591;SDS011;65481;47.600;19.682;2023-07-13T22:44:30;3.75;;;2.90;;
76591;SDS011;65481;47.600;19.682;2023-07-13T22:49:32;4.13;;;3.10;;
76591;SDS011;65481;47.600;19.682;2023-07-13T22:54:33;3.72;;;2.90;;
76591;SDS011;65481;47.600;19.682;2023-07-13T22:59:34;4.45;;;2.42;;
76591;SDS011;65481;47.600;19.682;2023-07-13T23:04:37;3.95;;;2.50;;
76591;SDS011;65481;47.600;19.682;2023-07-13T23:09:37;6.75;;;2.75;;
76591;SDS011;65481;47.600;19.682;2023-07-13T23:14:37;4.45;;;2.70;;
76591;SDS011;65481;47.600;19.682;2023-07-13T23:19:38;2.85;;;2.45;;
76591;SDS011;65481;47.600;19.682;2023-07-13T23:24:38;4.05;;;2.63;;
76591;SDS011;65481;47.600;19.682;2023-07-13T23:29:39;4.72;;;2.50;;
76591;SDS011;65481;47.600;19.682;2023-07-13T23:34:39;3.58;;;2.78;;
76591;SDS011;65481;47.600;19.682;2023-07-13T23:39:40;4.78;;;2.60;;
76591;SDS011;65481;47.600;19.682;2023-07-13T23:44:40;4.07;;;2.53;;
76591;SDS011;65481;47.600;19.682;2023-07-13T23:49:41;4.75;;;3.13;;
76591;SDS011;65481;47.600;19.682;2023-07-13T23:54:41;3.88;;;2.45;;
76591;SDS011;65481;47.600;19.682;2023-07-13T23:59:42;9.25;;;3.25;;
